Aviation Digital Data Service (ADDS)

Output produced by TAFs form (1915 UTC 13 February 2016)
found at http://www.aviationweather.gov/adds/tafs/
 
KPOU 131720Z 1318/1418 30018G28KT P6SM SCT050 
     FM140000 30011G21KT P6SM FEW050 
     FM140500 29009KT P6SM FEW040 
     FM141400 31011KT P6SM SKC